Time;durP1;ratioP1;P1;durP2;ratioP2;P2;SDS_P1;SDS_P2;PMS_P1;PMS_P2;Temp;Humidity;BMP_temperature;BMP_pressure;BME280_temperature;BME280_humidity;BME280_pressure;Samples;Min_cycle;Max_cycle;Signal;HPM_P1;HPM_P2
2023/06/15 00:01:15;;;;;;;15.37;9.77;;;15.10;99.90;;;;;;5093992;28;20304;-84
2023/06/15 00:03:42;;;;;;;14.07;9.23;;;15.10;99.90;;;;;;5093934;28;20201;-83
2023/06/15 00:06:10;;;;;;;15.37;10.10;;;15.10;99.90;;;;;;5077147;28;20213;-84
2023/06/15 00:08:37;;;;;;;13.63;9.90;;;15.10;99.90;;;;;;5093861;28;20308;-84
2023/06/15 00:11:04;;;;;;;15.60;9.80;;;15.10;99.90;;;;;;5093681;28;20312;-83
2023/06/15 00:13:31;;;;;;;13.27;9.87;;;15.10;99.90;;;;;;5093643;28;20212;-84
2023/06/15 00:15:58;;;;;;;13.37;9.90;;;15.10;99.90;;;;;;5093413;28;20221;-83
2023/06/15 00:18:26;;;;;;;15.40;10.27;;;15.00;99.90;;;;;;5095058;28;20185;-83
2023/06/15 00:20:55;;;;;;;14.50;9.70;;;15.00;99.90;;;;;;5093568;28;20214;-84
2023/06/15 00:23:26;;;;;;;13.70;10.40;;;14.90;99.90;;;;;;5093720;28;20221;-83
2023/06/15 00:25:55;;;;;;;14.93;10.47;;;14.90;99.90;;;;;;5093954;28;20220;-82
2023/06/15 00:28:22;;;;;;;14.37;10.20;;;14.90;99.90;;;;;;5094005;28;20292;-84
2023/06/15 00:30:50;;;;;;;14.13;10.27;;;14.80;99.90;;;;;;5094100;28;20750;-84
2023/06/15 00:33:17;;;;;;;14.73;10.57;;;14.80;99.90;;;;;;5093615;28;20205;-83
2023/06/15 00:35:44;;;;;;;17.60;10.67;;;14.80;99.90;;;;;;5076557;28;20239;-84
2023/06/15 00:38:11;;;;;;;15.30;11.30;;;14.80;99.90;;;;;;5076582;28;20197;-84
2023/06/15 00:40:38;;;;;;;17.17;12.93;;;14.70;99.90;;;;;;5076515;28;20217;-84
2023/06/15 00:43:06;;;;;;;18.07;13.00;;;14.70;99.90;;;;;;5076548;28;20193;-83
2023/06/15 00:45:34;;;;;;;17.83;13.83;;;14.70;99.90;;;;;;5094643;28;20300;-83
2023/06/15 00:48:01;;;;;;;20.93;14.27;;;14.70;99.90;;;;;;5092990;28;20247;-83
2023/06/15 00:50:30;;;;;;;16.60;13.20;;;14.70;99.90;;;;;;5076381;28;20227;-82
2023/06/15 00:53:03;;;;;;;22.03;15.73;;;14.70;99.90;;;;;;5094909;28;20208;-84
2023/06/15 00:55:34;;;;;;;23.33;16.27;;;14.80;99.90;;;;;;5076168;28;20295;-83
2023/06/15 00:58:02;;;;;;;21.73;16.53;;;14.70;99.90;;;;;;5076604;28;20201;-83
2023/06/15 01:00:33;;;;;;;22.37;16.87;;;14.70;99.90;;;;;;5093111;28;20283;-83
2023/06/15 01:03:04;;;;;;;23.40;16.63;;;14.70;99.90;;;;;;5094304;28;20206;-84
2023/06/15 01:05:34;;;;;;;21.90;15.80;;;14.70;99.90;;;;;;5092902;28;20681;-83
2023/06/15 01:08:04;;;;;;;19.20;14.50;;;14.80;99.90;;;;;;5076083;28;20211;-83
2023/06/15 01:10:33;;;;;;;17.17;12.67;;;14.70;99.90;;;;;;5075585;28;20277;-82
2023/06/15 01:13:03;;;;;;;17.80;11.57;;;14.70;99.90;;;;;;5092472;28;20572;-83
2023/06/15 01:15:30;;;;;;;19.27;10.80;;;14.70;99.90;;;;;;5075768;28;20291;-82
2023/06/15 01:18:03;;;;;;;15.80;11.13;;;14.70;99.90;;;;;;5075983;28;20300;-84
2023/06/15 01:20:39;;;;;;;16.03;11.00;;;14.70;99.90;;;;;;5092803;28;20229;-84
2023/06/15 01:23:30;;;;;;;17.23;10.27;;;14.70;99.90;;;;;;5092413;28;20235;-83
2023/06/15 01:26:08;;;;;;;19.87;11.40;;;14.70;99.90;;;;;;5092540;28;20240;-84
2023/06/15 01:28:40;;;;;;;14.90;10.60;;;14.60;99.90;;;;;;5092791;28;20649;-83
2023/06/15 01:31:09;;;;;;;16.80;10.50;;;14.60;99.90;;;;;;5093644;28;20241;-83
2023/06/15 01:34:03;;;;;;;14.00;10.33;;;14.60;99.90;;;;;;5093809;28;20593;-84
2023/06/15 01:36:30;;;;;;;16.10;11.20;;;14.40;99.90;;;;;;5090058;28;20237;-85
2023/06/15 01:38:58;;;;;;;18.77;11.83;;;14.40;99.90;;;;;;5092175;28;20193;-83
2023/06/15 01:41:26;;;;;;;17.17;11.90;;;14.40;99.90;;;;;;5092674;28;20250;-84
2023/06/15 01:43:55;;;;;;;18.37;12.17;;;14.40;99.90;;;;;;5075292;28;20770;-85
2023/06/15 01:46:24;;;;;;;16.60;11.83;;;14.40;99.90;;;;;;5075386;28;20636;-84
2023/06/15 01:48:53;;;;;;;17.47;11.83;;;14.40;99.90;;;;;;5094756;28;20214;-85
2023/06/15 01:51:22;;;;;;;17.43;12.47;;;14.40;99.90;;;;;;5092994;28;20227;-85
2023/06/15 01:53:50;;;;;;;17.30;11.83;;;14.30;99.90;;;;;;5093756;28;20329;-86
2023/06/15 01:56:17;;;;;;;17.33;13.30;;;14.30;99.90;;;;;;5094416;28;20225;-85
2023/06/15 01:58:45;;;;;;;19.87;13.13;;;14.20;99.90;;;;;;5093224;28;20749;-85
2023/06/15 02:01:11;;;;;;;18.63;12.93;;;14.30;99.90;;;;;;5093418;28;20304;-85
2023/06/15 02:03:38;;;;;;;16.20;12.70;;;14.30;99.90;;;;;;5078007;28;20198;-86
2023/06/15 02:06:05;;;;;;;19.40;13.60;;;14.30;99.90;;;;;;5096013;28;20243;-87
2023/06/15 02:08:32;;;;;;;18.83;12.70;;;14.30;99.90;;;;;;5094293;28;20193;-85
2023/06/15 02:11:00;;;;;;;19.07;13.63;;;14.40;99.90;;;;;;5076510;28;20258;-85
2023/06/15 02:13:26;;;;;;;19.67;12.80;;;14.30;99.90;;;;;;5038351;28;20205;-84
2023/06/15 02:15:53;;;;;;;20.90;13.60;;;14.30;99.90;;;;;;5072897;28;20214;-87
2023/06/15 02:18:20;;;;;;;18.33;13.13;;;14.30;99.90;;;;;;5055087;28;20233;-85
2023/06/15 02:20:48;;;;;;;17.27;12.90;;;14.30;99.90;;;;;;5038625;28;20343;-84
2023/06/15 02:23:15;;;;;;;18.70;12.43;;;14.30;99.90;;;;;;5055317;28;20293;-84
2023/06/15 02:25:42;;;;;;;18.00;13.70;;;14.30;99.90;;;;;;5038572;28;20245;-84
2023/06/15 02:28:09;;;;;;;17.87;13.00;;;14.30;99.90;;;;;;5038509;28;20296;-85
2023/06/15 02:30:36;;;;;;;17.60;13.43;;;14.40;99.90;;;;;;5073240;28;20685;-85
2023/06/15 02:33:05;;;;;;;16.80;13.00;;;14.40;99.90;;;;;;5073180;28;20595;-83
2023/06/15 02:35:32;;;;;;;16.97;12.63;;;14.40;99.90;;;;;;5038899;28;20232;-85
2023/06/15 02:37:59;;;;;;;17.53;12.93;;;14.40;99.90;;;;;;5054851;28;20225;-86
2023/06/15 02:40:26;;;;;;;18.73;12.40;;;14.40;99.90;;;;;;5054966;28;20234;-85
2023/06/15 02:42:53;;;;;;;15.80;12.17;;;14.50;99.90;;;;;;5054797;28;20313;-83
2023/06/15 02:45:20;;;;;;;18.97;12.90;;;14.40;99.90;;;;;;5054563;28;20260;-84
2023/06/15 02:47:47;;;;;;;18.17;12.60;;;14.40;99.90;;;;;;5054284;28;20204;-84
2023/06/15 02:50:14;;;;;;;18.43;12.63;;;14.40;99.90;;;;;;5039234;28;20220;-83
2023/06/15 02:52:45;;;;;;;18.53;12.57;;;14.40;99.90;;;;;;5054494;28;20208;-83
2023/06/15 02:55:13;;;;;;;17.33;12.30;;;14.40;99.90;;;;;;5054674;28;20615;-82
2023/06/15 02:57:41;;;;;;;15.30;12.17;;;14.40;99.90;;;;;;5054117;28;20247;-83
2023/06/15 03:00:12;;;;;;;16.47;12.27;;;14.50;99.90;;;;;;5054500;28;20297;-83
2023/06/15 03:02:43;;;;;;;16.63;12.40;;;14.50;99.90;;;;;;5054520;28;20255;-83
2023/06/15 03:05:11;;;;;;;16.87;12.57;;;14.50;99.90;;;;;;5054352;28;20276;-83
2023/06/15 03:07:40;;;;;;;16.77;12.13;;;14.50;99.90;;;;;;5054051;28;20205;-83
2023/06/15 03:10:07;;;;;;;17.00;11.60;;;14.50;99.90;;;;;;5056074;28;20237;-82
2023/06/15 03:12:34;;;;;;;16.73;11.03;;;14.50;99.90;;;;;;5078532;28;20296;-82
2023/06/15 03:15:02;;;;;;;14.03;10.70;;;14.50;99.90;;;;;;5094703;28;20210;-83
2023/06/15 03:17:32;;;;;;;14.73;10.70;;;14.50;99.90;;;;;;5094849;28;20201;-83
2023/06/15 03:20:00;;;;;;;15.87;11.27;;;14.50;99.90;;;;;;5094782;28;20718;-82
2023/06/15 03:22:27;;;;;;;14.70;10.87;;;14.50;99.90;;;;;;5078410;28;20300;-83
2023/06/15 03:24:55;;;;;;;18.00;12.10;;;14.50;99.90;;;;;;5078453;28;20616;-83
2023/06/15 03:27:22;;;;;;;18.27;11.63;;;14.50;99.90;;;;;;5078678;28;20194;-82
2023/06/15 03:29:49;;;;;;;14.80;11.50;;;14.50;99.90;;;;;;5094976;28;20210;-82
2023/06/15 03:32:16;;;;;;;15.97;11.53;;;14.60;99.90;;;;;;5094748;28;20181;-84
2023/06/15 03:34:46;;;;;;;16.37;11.27;;;14.50;99.90;;;;;;5094513;28;20218;-83
2023/06/15 03:37:13;;;;;;;16.87;12.27;;;14.60;99.90;;;;;;5095726;28;20184;-83
2023/06/15 03:39:40;;;;;;;18.03;12.23;;;14.60;99.90;;;;;;5077800;28;20266;-82
2023/06/15 03:42:07;;;;;;;17.83;11.77;;;14.60;99.90;;;;;;5094410;28;20296;-83
2023/06/15 03:44:34;;;;;;;15.87;11.80;;;14.60;99.90;;;;;;5077256;28;20219;-82
2023/06/15 03:47:01;;;;;;;18.03;11.70;;;14.70;99.90;;;;;;5095634;28;20196;-83
2023/06/15 03:49:28;;;;;;;16.17;11.97;;;14.70;99.90;;;;;;5094021;28;20201;-83
2023/06/15 03:51:55;;;;;;;17.23;11.83;;;14.70;99.90;;;;;;5095640;28;20204;-84
2023/06/15 03:54:22;;;;;;;17.97;12.10;;;14.80;99.90;;;;;;5077420;28;20229;-84
2023/06/15 03:56:49;;;;;;;16.40;11.60;;;14.90;99.90;;;;;;5095213;28;20251;-83
2023/06/15 03:59:17;;;;;;;16.93;11.03;;;14.90;99.90;;;;;;5095360;28;20206;-84
2023/06/15 04:01:44;;;;;;;15.00;11.27;;;14.90;99.90;;;;;;5094029;28;20257;-83
2023/06/15 04:04:14;;;;;;;17.10;11.43;;;14.90;99.90;;;;;;5077177;28;20683;-84
2023/06/15 04:06:46;;;;;;;15.27;11.77;;;14.90;99.90;;;;;;5093812;28;20255;-84
2023/06/15 04:09:14;;;;;;;14.47;10.87;;;15.00;99.90;;;;;;5074576;28;20238;-84
2023/06/15 04:11:41;;;;;;;15.80;10.77;;;15.00;99.90;;;;;;5075138;28;20689;-85
2023/06/15 04:14:08;;;;;;;15.00;11.37;;;15.00;99.90;;;;;;5074681;28;20241;-84
2023/06/15 04:16:35;;;;;;;14.17;10.97;;;15.00;99.90;;;;;;5056220;28;20222;-84
2023/06/15 04:19:02;;;;;;;16.90;10.90;;;15.00;99.90;;;;;;5056968;28;20270;-83
2023/06/15 04:21:29;;;;;;;15.40;11.80;;;15.10;99.90;;;;;;5055524;28;20249;-83
2023/06/15 04:23:56;;;;;;;15.90;10.97;;;15.10;99.90;;;;;;5056675;28;20219;-82
2023/06/15 04:26:23;;;;;;;14.80;11.20;;;15.20;99.90;;;;;;5074055;28;20724;-84
2023/06/15 04:28:50;;;;;;;15.67;11.00;;;15.20;99.90;;;;;;5039926;28;20259;-84
2023/06/15 04:31:17;;;;;;;12.77;10.20;;;15.20;99.90;;;;;;5056131;28;20214;-85
2023/06/15 04:33:44;;;;;;;15.67;10.83;;;15.20;99.90;;;;;;5039771;28;20209;-84
2023/06/15 04:36:12;;;;;;;16.33;10.43;;;15.30;99.90;;;;;;5039277;28;20326;-84
2023/06/15 04:38:46;;;;;;;15.17;11.30;;;15.40;99.90;;;;;;5055986;28;20194;-85
2023/06/15 04:41:14;;;;;;;14.03;10.13;;;15.40;99.90;;;;;;5056308;28;20291;-84
2023/06/15 04:43:42;;;;;;;14.07;10.70;;;15.40;99.90;;;;;;5056196;28;20253;-84
2023/06/15 04:46:11;;;;;;;15.27;10.50;;;15.50;99.90;;;;;;5056182;28;20214;-84
2023/06/15 04:48:43;;;;;;;14.77;10.50;;;15.50;99.90;;;;;;5074199;28;20236;-83
2023/06/15 04:51:11;;;;;;;13.13;10.30;;;15.50;99.90;;;;;;5074176;28;20246;-84
2023/06/15 04:53:42;;;;;;;15.27;10.60;;;15.60;99.90;;;;;;5056395;28;20524;-83
2023/06/15 04:56:11;;;;;;;13.00;9.87;;;15.60;99.90;;;;;;5056271;28;20229;-83
2023/06/15 04:58:38;;;;;;;13.33;9.83;;;15.60;99.90;;;;;;5039251;28;20293;-82
2023/06/15 05:01:06;;;;;;;13.93;10.50;;;15.60;99.90;;;;;;5055749;28;20222;-82
2023/06/15 05:03:34;;;;;;;14.43;10.40;;;15.60;99.90;;;;;;5055181;28;20211;-84
2023/06/15 05:06:01;;;;;;;13.73;9.57;;;15.60;99.90;;;;;;5055158;28;20589;-83
2023/06/15 05:08:28;;;;;;;12.90;9.87;;;15.70;99.90;;;;;;5055133;28;20483;-82
2023/06/15 05:10:56;;;;;;;14.87;10.33;;;15.70;99.90;;;;;;5085847;28;20253;-84
2023/06/15 05:13:23;;;;;;;13.70;10.47;;;15.80;99.90;;;;;;5092089;28;20203;-84
2023/06/15 05:15:51;;;;;;;14.73;10.70;;;15.80;99.90;;;;;;5091826;28;20247;-84
2023/06/15 05:18:22;;;;;;;13.97;9.57;;;15.90;99.90;;;;;;5092328;28;20652;-84
2023/06/15 05:20:50;;;;;;;12.83;9.37;;;16.00;99.90;;;;;;5092135;28;20320;-85
2023/06/15 05:23:19;;;;;;;11.27;8.60;;;16.10;99.90;;;;;;5092377;28;20262;-85
2023/06/15 05:25:46;;;;;;;12.17;9.07;;;16.10;99.90;;;;;;5093368;28;20202;-85
2023/06/15 05:28:14;;;;;;;10.20;8.00;;;16.10;99.90;;;;;;5091854;28;20255;-84
2023/06/15 05:30:41;;;;;;;10.17;8.20;;;16.20;99.90;;;;;;5092591;28;20278;-85
2023/06/15 05:33:08;;;;;;;9.43;7.60;;;16.40;99.90;;;;;;5092553;28;20185;-83
2023/06/15 05:35:35;;;;;;;11.50;7.87;;;16.40;99.90;;;;;;5092303;28;20649;-82
2023/06/15 05:38:02;;;;;;;10.33;8.30;;;16.40;99.90;;;;;;5092540;28;20219;-83
2023/06/15 05:40:29;;;;;;;10.07;7.47;;;16.50;99.90;;;;;;5075132;28;20270;-83
2023/06/15 05:42:56;;;;;;;10.23;7.17;;;16.60;99.90;;;;;;5093950;28;20273;-82
2023/06/15 05:45:24;;;;;;;10.00;7.67;;;16.50;99.90;;;;;;5092849;28;20252;-82
2023/06/15 05:47:53;;;;;;;9.63;7.50;;;16.60;99.90;;;;;;5091534;28;20288;-83
2023/06/15 05:50:20;;;;;;;12.00;8.00;;;16.60;99.90;;;;;;5091198;28;20561;-83
2023/06/15 05:52:47;;;;;;;12.00;7.77;;;16.60;99.90;;;;;;5092604;28;20193;-84
2023/06/15 05:55:14;;;;;;;8.77;6.70;;;16.60;99.90;;;;;;5091102;28;20214;-84
2023/06/15 05:57:42;;;;;;;10.17;7.00;;;16.50;99.90;;;;;;5091200;28;20209;-84
2023/06/15 06:00:09;;;;;;;12.90;9.07;;;16.50;99.90;;;;;;5091038;28;20217;-84
2023/06/15 06:02:37;;;;;;;9.43;7.70;;;16.40;99.90;;;;;;5091668;28;20704;-83
2023/06/15 06:05:05;;;;;;;11.37;7.77;;;16.40;99.90;;;;;;5074643;28;20245;-83
2023/06/15 06:07:32;;;;;;;9.63;7.57;;;16.50;99.90;;;;;;5077563;28;20279;-82
2023/06/15 06:09:59;;;;;;;11.73;7.10;;;16.70;99.90;;;;;;5092495;28;20724;-83
2023/06/15 06:12:25;;;;;;;9.53;6.90;;;16.90;99.90;;;;;;5095683;28;20197;-83
2023/06/15 06:14:52;;;;;;;9.60;6.87;;;17.10;99.90;;;;;;5097864;28;20254;-83
2023/06/15 06:17:19;;;;;;;12.17;7.47;;;17.00;99.90;;;;;;5092179;28;20217;-80
2023/06/15 06:20:07;;;;;;;10.20;6.60;;;17.20;99.90;;;;;;5091973;28;20231;-81
2023/06/15 06:22:34;;;;;;;10.13;7.13;;;17.30;99.90;;;;;;5074041;28;20251;-82
2023/06/15 06:25:01;;;;;;;9.90;7.07;;;17.40;99.90;;;;;;5092100;28;20282;-80
2023/06/15 06:27:30;;;;;;;10.00;7.60;;;17.30;99.90;;;;;;5092716;28;20224;-80
2023/06/15 06:29:58;;;;;;;10.77;7.60;;;17.30;99.90;;;;;;5090838;28;20616;-78
2023/06/15 06:32:25;;;;;;;9.40;6.70;;;17.40;99.90;;;;;;5091068;28;20255;-79
2023/06/15 06:34:52;;;;;;;7.93;6.03;;;17.50;99.90;;;;;;5074227;28;20703;-80
2023/06/15 06:37:19;;;;;;;7.40;6.00;;;17.70;99.90;;;;;;5090684;28;20568;-79
2023/06/15 06:39:46;;;;;;;7.63;6.20;;;17.80;99.90;;;;;;5091347;28;20572;-81
2023/06/15 06:42:13;;;;;;;8.70;5.80;;;18.10;99.90;;;;;;5074486;28;20560;-80
2023/06/15 06:44:40;;;;;;;8.13;6.27;;;18.30;99.90;;;;;;5074841;28;20217;-81
2023/06/15 06:47:07;;;;;;;7.23;5.40;;;18.50;99.90;;;;;;5095003;28;20630;-82
2023/06/15 06:49:34;;;;;;;6.67;5.30;;;18.50;99.90;;;;;;5094860;28;20652;-81
2023/06/15 06:52:02;;;;;;;7.83;5.67;;;18.60;99.90;;;;;;5094755;28;20603;-81
2023/06/15 06:54:29;;;;;;;6.93;6.20;;;18.70;99.90;;;;;;5095023;28;20301;-83
2023/06/15 06:56:55;;;;;;;6.87;5.93;;;18.70;99.90;;;;;;5096220;28;20610;-83
2023/06/15 06:59:22;;;;;;;7.57;5.83;;;18.70;99.90;;;;;;5095040;28;20255;-79
2023/06/15 07:02:08;;;;;;;5.67;4.60;;;18.70;99.90;;;;;;5080553;28;20637;-80
2023/06/15 07:04:35;;;;;;;6.60;4.93;;;18.60;99.90;;;;;;5094596;28;20201;-79
2023/06/15 07:07:02;;;;;;;7.23;5.60;;;18.50;99.90;;;;;;5094516;28;20189;-77
2023/06/15 07:09:30;;;;;;;7.13;5.40;;;18.60;99.90;;;;;;5094008;28;20218;-81
2023/06/15 07:11:58;;;;;;;7.10;5.10;;;18.50;99.90;;;;;;5094370;28;20731;-81
2023/06/15 07:14:25;;;;;;;6.33;5.17;;;18.50;99.90;;;;;;5094221;28;20207;-80
2023/06/15 07:16:52;;;;;;;6.30;5.17;;;18.50;99.90;;;;;;5093882;28;20274;-72
2023/06/15 07:19:18;;;;;;;7.07;4.90;;;18.50;99.90;;;;;;5093396;28;20224;-73
2023/06/15 07:21:45;;;;;;;7.40;5.10;;;18.30;99.90;;;;;;5094790;28;20186;-73
2023/06/15 07:24:12;;;;;;;6.20;5.20;;;18.40;99.90;;;;;;5093827;28;20193;-73
2023/06/15 07:26:39;;;;;;;5.47;4.57;;;18.40;99.90;;;;;;5093430;28;20220;-75
2023/06/15 07:29:06;;;;;;;6.43;4.87;;;18.30;99.90;;;;;;5095301;28;20181;-74
2023/06/15 07:31:33;;;;;;;6.60;5.90;;;18.50;99.90;;;;;;5093964;28;20268;-74
2023/06/15 07:34:02;;;;;;;7.10;5.67;;;18.70;99.90;;;;;;5077162;28;20247;-74
2023/06/15 07:36:29;;;;;;;6.80;5.57;;;18.80;99.90;;;;;;5093363;28;20229;-75
2023/06/15 07:38:56;;;;;;;5.83;4.87;;;19.00;99.90;;;;;;5094853;28;20193;-75
2023/06/15 07:41:23;;;;;;;6.00;5.40;;;19.20;99.90;;;;;;5093644;28;20220;-75
2023/06/15 07:43:50;;;;;;;7.80;5.73;;;19.30;99.90;;;;;;5093957;28;20266;-80
2023/06/15 07:46:17;;;;;;;6.27;5.20;;;19.30;99.90;;;;;;5093562;28;20221;-79
2023/06/15 07:48:44;;;;;;;5.50;4.80;;;19.40;99.90;;;;;;5093743;28;20240;-79
2023/06/15 07:51:11;;;;;;;6.70;5.13;;;19.60;99.90;;;;;;5093295;28;20316;-79
2023/06/15 07:53:58;;;;;;;7.00;5.80;;;19.70;99.90;;;;;;5093773;28;20197;-78
2023/06/15 07:56:25;;;;;;;6.93;5.63;;;19.40;99.90;;;;;;5092250;28;20221;-81
2023/06/15 07:58:52;;;;;;;7.07;5.67;;;19.60;99.90;;;;;;5093653;28;20658;-82
2023/06/15 08:01:19;;;;;;;6.07;5.07;;;19.80;99.90;;;;;;5093821;28;20240;-82
2023/06/15 08:03:46;;;;;;;7.50;5.77;;;20.10;99.90;;;;;;5095364;28;20205;-82
2023/06/15 08:06:13;;;;;;;6.93;5.50;;;20.30;99.90;;;;;;5093458;28;20241;-79
2023/06/15 08:08:40;;;;;;;7.67;6.20;;;20.60;99.90;;;;;;5077305;28;20201;-79
2023/06/15 08:11:07;;;;;;;7.47;6.27;;;21.00;99.90;;;;;;5093588;28;20225;-79
2023/06/15 08:13:34;;;;;;;10.30;6.77;;;21.10;99.90;;;;;;5077010;28;20280;-81
2023/06/15 08:16:01;;;;;;;8.50;5.97;;;21.30;99.90;;;;;;5093529;28;20249;-81
2023/06/15 08:18:28;;;;;;;7.73;5.50;;;21.50;99.90;;;;;;5093700;28;20194;-80
2023/06/15 08:20:55;;;;;;;7.50;5.37;;;21.90;99.90;;;;;;5094675;28;20235;-80
2023/06/15 08:23:22;;;;;;;6.67;5.47;;;22.00;99.90;;;;;;5094365;28;20277;-81
2023/06/15 08:25:52;;;;;;;6.70;5.50;;;22.20;99.90;;;;;;5076102;28;20225;-80
2023/06/15 08:28:22;;;;;;;6.37;5.30;;;22.10;99.90;;;;;;5093023;28;20316;-80
2023/06/15 08:30:49;;;;;;;7.47;5.70;;;22.00;99.90;;;;;;5092506;28;20248;-80
2023/06/15 08:33:18;;;;;;;7.53;5.90;;;21.90;99.90;;;;;;5093903;28;20247;-82
2023/06/15 08:35:45;;;;;;;8.63;6.33;;;21.50;99.90;;;;;;5092252;28;20217;-80
2023/06/15 08:38:12;;;;;;;8.40;6.33;;;21.20;99.90;;;;;;5092192;28;20601;-80
2023/06/15 08:40:39;;;;;;;8.47;6.10;;;21.20;99.90;;;;;;5092648;28;20201;-82
2023/06/15 08:43:08;;;;;;;8.27;6.17;;;20.90;99.90;;;;;;5094159;28;20281;-82
2023/06/15 08:45:42;;;;;;;10.40;6.23;;;21.00;99.90;;;;;;5092808;28;20209;-80
2023/06/15 08:48:11;;;;;;;7.67;6.03;;;21.10;99.90;;;;;;5076047;28;20285;-82
2023/06/15 08:50:39;;;;;;;7.17;5.10;;;21.40;99.90;;;;;;5075891;28;20222;-81
2023/06/15 08:53:08;;;;;;;6.67;5.23;;;22.10;99.90;;;;;;5093037;28;20206;-82
2023/06/15 08:55:35;;;;;;;7.90;5.57;;;22.70;99.90;;;;;;5093979;28;20224;-80
2023/06/15 08:58:05;;;;;;;5.88;5.18;;;23.50;99.90;;;;;;5094122;28;20448;-81
2023/06/15 09:00:32;;;;;;;8.27;6.05;;;23.90;99.90;;;;;;5075856;28;20677;-81
2023/06/15 09:03:03;;;;;;;7.72;5.72;;;24.10;99.90;;;;;;5093671;28;20178;-80
2023/06/15 09:05:30;;;;;;;9.55;5.93;;;24.00;99.90;;;;;;5092632;28;20227;-80
2023/06/15 09:07:58;;;;;;;5.78;5.20;;;23.80;99.90;;;;;;5092002;28;20258;-82
2023/06/15 09:10:26;;;;;;;7.07;5.80;;;23.40;99.90;;;;;;5092183;28;20586;-81
2023/06/15 09:12:57;;;;;;;7.55;5.85;;;22.80;99.90;;;;;;5093479;28;20280;-81
2023/06/15 09:15:27;;;;;;;10.07;6.40;;;22.40;99.90;;;;;;5091892;28;20612;-83
2023/06/15 09:17:56;;;;;;;8.30;5.77;;;22.20;99.90;;;;;;5075091;28;20266;-82
2023/06/15 09:20:25;;;;;;;8.10;6.13;;;22.10;99.90;;;;;;5092019;28;20271;-84
2023/06/15 09:23:01;;;;;;;7.17;5.70;;;21.80;99.90;;;;;;5092061;28;20239;-82
2023/06/15 09:25:31;;;;;;;9.00;6.07;;;21.30;99.90;;;;;;5091935;28;20341;-80
2023/06/15 09:28:00;;;;;;;8.07;6.30;;;21.10;99.90;;;;;;5093126;28;20190;-81
2023/06/15 09:30:37;;;;;;;6.10;5.47;;;20.80;99.90;;;;;;5091880;28;20274;-81
2023/06/15 09:33:15;;;;;;;8.13;6.10;;;20.50;99.90;;;;;;5091765;28;20247;-80
2023/06/15 09:35:58;;;;;;;8.83;5.90;;;20.40;99.90;;;;;;5091946;28;20299;-81
2023/06/15 09:38:40;;;;;;;7.33;5.70;;;20.30;99.90;;;;;;5091586;28;20214;-79
2023/06/15 09:41:08;;;;;;;7.17;5.30;;;20.20;99.90;;;;;;5091952;28;20286;-82
2023/06/15 09:43:40;;;;;;;8.30;5.90;;;20.30;99.90;;;;;;5091668;28;20694;-81
2023/06/15 09:46:12;;;;;;;7.10;5.73;;;20.50;99.90;;;;;;5091866;28;20316;-80
2023/06/15 09:48:40;;;;;;;8.33;5.60;;;21.00;99.90;;;;;;5091684;28;20645;-80
2023/06/15 09:51:07;;;;;;;6.83;5.53;;;21.20;99.90;;;;;;5091437;28;20233;-79
2023/06/15 09:53:34;;;;;;;7.43;5.53;;;21.60;99.90;;;;;;5091919;28;20247;-78
2023/06/15 09:56:01;;;;;;;9.10;6.10;;;21.70;99.90;;;;;;5074418;28;20213;-78
2023/06/15 09:58:37;;;;;;;7.70;6.23;;;22.30;99.90;;;;;;5092886;28;20205;-80
2023/06/15 10:01:05;;;;;;;7.33;5.80;;;22.50;99.90;;;;;;5074579;28;20711;-79
2023/06/15 10:03:33;;;;;;;9.70;6.60;;;22.40;99.90;;;;;;5091422;28;20197;-79
2023/06/15 10:06:16;;;;;;;9.80;5.93;;;22.00;99.90;;;;;;5091661;28;20210;-78
2023/06/15 10:08:45;;;;;;;7.63;6.00;;;21.80;99.90;;;;;;5091347;28;20242;-79
2023/06/15 10:11:12;;;;;;;10.03;6.00;;;22.00;99.90;;;;;;5091234;28;20711;-79
2023/06/15 10:13:56;;;;;;;7.23;5.70;;;22.00;99.90;;;;;;5091552;28;20205;-78
2023/06/15 10:16:25;;;;;;;8.10;5.63;;;21.40;99.90;;;;;;5091181;28;20228;-77
2023/06/15 10:18:58;;;;;;;6.93;5.67;;;21.20;99.90;;;;;;5074028;28;20308;-78
2023/06/15 10:21:29;;;;;;;9.57;5.40;;;21.40;99.90;;;;;;5092214;28;20209;-78
2023/06/15 10:23:59;;;;;;;6.13;4.97;;;21.70;99.90;;;;;;5092673;28;20180;-78
2023/06/15 10:26:26;;;;;;;5.57;4.80;;;22.10;99.90;;;;;;5091355;28;20470;-80
2023/06/15 10:29:00;;;;;;;6.80;5.33;;;22.10;99.90;;;;;;5074137;28;20201;-80
2023/06/15 10:31:35;;;;;;;6.77;5.00;;;22.60;99.90;;;;;;5074364;28;20209;-81
2023/06/15 10:34:26;;;;;;;6.05;4.90;;;22.40;99.90;;;;;;5092427;28;20276;-82
2023/06/15 10:36:59;;;;;;;8.47;5.00;;;22.70;99.90;;;;;;5074358;28;20306;-83
2023/06/15 10:39:35;;;;;;;6.30;5.13;;;23.40;99.90;;;;;;5090955;28;20671;-79
2023/06/15 10:42:07;;;;;;;5.97;4.90;;;23.30;99.90;;;;;;5090878;28;20663;-80
2023/06/15 10:44:34;;;;;;;5.90;4.80;;;23.30;99.90;;;;;;5074084;28;20570;-78
2023/06/15 10:47:12;;;;;;;8.23;5.33;;;23.50;99.90;;;;;;5090880;28;20393;-80
2023/06/15 10:49:50;;;;;;;6.63;4.73;;;23.60;99.90;;;;;;5091147;28;20243;-80
2023/06/15 10:52:18;;;;;;;6.72;5.15;;;23.00;99.90;;;;;;5091054;28;20185;-78
2023/06/15 10:54:45;;;;;;;6.65;5.40;;;23.20;99.90;;;;;;5090878;28;20763;-78
2023/06/15 10:57:17;;;;;;;5.45;4.80;;;23.20;99.90;;;;;;5090780;28;20297;-77
2023/06/15 10:59:54;;;;;;;6.32;4.85;;;23.40;99.90;;;;;;5090597;28;20585;-78
2023/06/15 11:02:27;;;;;;;6.32;5.32;;;23.40;99.90;;;;;;5074150;28;20208;-77
2023/06/15 11:05:05;;;;;;;5.60;5.00;;;23.20;99.90;;;;;;5091908;28;20241;-79
2023/06/15 11:07:45;;;;;;;7.53;5.40;;;22.80;99.90;;;;;;5090694;28;20308;-79
2023/06/15 11:10:27;;;;;;;7.63;5.50;;;22.80;99.90;;;;;;5074047;28;20302;-79
2023/06/15 11:13:03;;;;;;;7.23;5.67;;;22.40;99.90;;;;;;5090193;28;20233;-80
2023/06/15 11:15:35;;;;;;;8.70;6.13;;;22.90;99.90;;;;;;5089931;28;20209;-78
2023/06/15 11:18:13;;;;;;;7.15;5.45;;;23.60;99.90;;;;;;5089809;28;20252;-78
2023/06/15 11:20:42;;;;;;;8.75;5.88;;;24.40;99.90;;;;;;5090005;28;20357;-78
2023/06/15 11:23:11;;;;;;;6.18;5.28;;;25.20;99.90;;;;;;5091150;28;20190;-78
2023/06/15 11:25:46;;;;;;;8.27;5.85;;;25.40;99.90;;;;;;5090193;28;20312;-80
2023/06/15 11:28:24;;;;;;;7.85;6.00;;;24.80;99.90;;;;;;5073690;28;20645;-79
2023/06/15 11:30:54;;;;;;;6.85;5.57;;;25.10;99.90;;;;;;5090656;28;20320;-79
2023/06/15 11:33:29;;;;;;;5.65;5.03;;;25.40;99.90;;;;;;5093931;28;20259;-81
2023/06/15 11:35:56;;;;;;;6.35;5.70;;;25.50;99.90;;;;;;5095084;28;20216;-79
2023/06/15 11:38:29;;;;;;;8.60;5.18;;;26.00;99.90;;;;;;5093262;28;20684;-82
2023/06/15 11:41:05;;;;;;;7.43;4.70;;;26.30;99.90;;;;;;5094959;28;20210;-79
2023/06/15 11:43:40;;;;;;;4.82;4.35;;;26.70;99.90;;;;;;5095192;28;20537;-78
2023/06/15 11:46:12;;;;;;;6.13;4.97;;;26.80;99.90;;;;;;5093279;28;20423;-80
2023/06/15 11:49:10;;;;;;;5.40;4.43;;;26.70;99.90;;;;;;5093194;28;20229;-79
2023/06/15 11:51:41;;;;;;;5.80;4.90;;;26.50;99.90;;;;;;5093804;28;20572;-80
2023/06/15 11:54:11;;;;;;;5.90;4.80;;;25.60;99.90;;;;;;5093266;28;20223;-80
2023/06/15 11:56:44;;;;;;;5.55;4.70;;;24.90;99.90;;;;;;5093299;28;20245;-81
2023/06/15 11:59:14;;;;;;;5.25;4.43;;;25.30;99.90;;;;;;5076454;28;20282;-79
2023/06/15 12:01:42;;;;;;;7.13;4.47;;;25.60;99.90;;;;;;5093267;28;20218;-80
2023/06/15 12:04:13;;;;;;;5.40;4.40;;;25.60;99.90;;;;;;5094734;28;20280;-80
2023/06/15 12:06:41;;;;;;;5.68;4.50;;;25.50;99.90;;;;;;5076375;28;20218;-80
2023/06/15 12:09:09;;;;;;;5.50;4.40;;;25.60;99.90;;;;;;5090408;28;20239;-81
2023/06/15 12:11:37;;;;;;;6.43;4.00;;;25.80;99.90;;;;;;5056000;28;20237;-81
2023/06/15 12:14:11;;;;;;;6.97;3.83;;;26.30;99.90;;;;;;5074618;28;20190;-79
2023/06/15 12:16:39;;;;;;;4.68;4.13;;;25.90;99.90;;;;;;5058754;28;20627;-81
2023/06/15 12:19:09;;;;;;;5.40;3.85;;;25.60;99.90;;;;;;5043634;28;20210;-80
2023/06/15 12:21:38;;;;;;;4.60;3.70;;;25.50;99.90;;;;;;5082726;28;20317;-79
2023/06/15 12:24:13;;;;;;;4.75;3.33;;;25.70;99.90;;;;;;5075972;28;20508;-79
2023/06/15 12:26:46;;;;;;;3.33;3.03;;;25.80;99.90;;;;;;5056553;28;20214;-80
2023/06/15 12:29:16;;;;;;;3.42;3.13;;;25.60;99.90;;;;;;5056504;28;20198;-82
2023/06/15 12:31:53;;;;;;;2.80;2.50;;;25.90;99.90;;;;;;5056971;28;20259;-81
2023/06/15 12:34:25;;;;;;;3.03;2.10;;;26.60;99.90;;;;;;5056264;28;20233;-80
2023/06/15 12:36:55;;;;;;;2.28;2.08;;;27.10;98.30;;;;;;5056034;28;20186;-78
2023/06/15 12:39:30;;;;;;;2.15;1.85;;;27.20;98.70;;;;;;5055715;28;20241;-83
2023/06/15 12:42:01;;;;;;;2.83;1.90;;;25.70;99.90;;;;;;5073709;28;20601;-78
2023/06/15 12:44:29;;;;;;;2.88;1.90;;;26.40;99.90;;;;;;5055811;28;20481;-77
2023/06/15 12:46:57;;;;;;;2.22;1.60;;;26.30;99.70;;;;;;5073817;28;20587;-76
2023/06/15 12:49:24;;;;;;;3.50;2.00;;;26.60;99.90;;;;;;5074075;28;20615;-76